METAR Data
IDs: Format: Raw Decoded Include TAF

Data at: 2244 UTC 02 Aug 2021

SANT 022200Z 09004KT 5000 FU NSC 18/01 Q1024